Time;durP1;ratioP1;P1;durP2;ratioP2;P2;SDS_P1;SDS_P2;PMS_P1;PMS_P2;Temp;Humidity;BMP_temperature;BMP_pressure;BME280_temperature;BME280_humidity;BME280_pressure;Samples;Min_cycle;Max_cycle;Signal;HPM_P1;HPM_P2
2021/11/23 00:01:02;;;;;;;5.13;3.30;;;6.20;74.00;;;;;;5053133;28;20029;-79
2021/11/23 00:03:28;;;;;;;4.60;3.22;;;6.20;74.00;;;;;;5053451;28;20056;-79
2021/11/23 00:05:54;;;;;;;4.35;3.20;;;6.20;74.00;;;;;;5053630;28;20033;-79
2021/11/23 00:08:20;;;;;;;4.55;3.15;;;6.20;74.00;;;;;;5036834;28;20028;-79
2021/11/23 00:10:46;;;;;;;5.47;3.60;;;6.20;74.00;;;;;;5053411;28;20021;-79
2021/11/23 00:13:13;;;;;;;4.28;2.83;;;6.20;74.00;;;;;;5053441;28;20025;-82
2021/11/23 00:15:39;;;;;;;3.80;3.05;;;6.10;74.00;;;;;;5069326;28;20037;-79
2021/11/23 00:18:12;;;;;;;4.90;3.10;;;6.10;74.00;;;;;;5053164;28;20044;-79
2021/11/23 00:20:40;;;;;;;5.20;3.13;;;6.10;74.00;;;;;;5053271;28;20025;-80
2021/11/23 00:23:06;;;;;;;4.80;3.00;;;6.10;74.00;;;;;;5053206;28;20037;-81
2021/11/23 00:25:32;;;;;;;5.35;3.20;;;6.10;74.00;;;;;;5052723;28;20094;-82
2021/11/23 00:27:59;;;;;;;4.07;3.10;;;6.10;74.10;;;;;;5053144;28;20124;-79
2021/11/23 00:30:25;;;;;;;4.78;3.00;;;6.10;74.00;;;;;;5052804;28;20025;-79
2021/11/23 00:32:53;;;;;;;5.35;3.22;;;6.00;74.00;;;;;;5036757;28;20025;-79
2021/11/23 00:35:20;;;;;;;5.00;3.40;;;6.00;74.10;;;;;;5053054;28;20405;-79
2021/11/23 00:37:47;;;;;;;4.70;3.17;;;6.00;74.00;;;;;;5052917;28;20036;-79
2021/11/23 00:40:15;;;;;;;3.55;3.00;;;6.10;74.10;;;;;;5052390;28;20061;-82
2021/11/23 00:42:41;;;;;;;5.30;3.40;;;6.00;74.10;;;;;;5052927;28;20076;-81
2021/11/23 00:45:08;;;;;;;5.45;3.72;;;6.00;74.10;;;;;;5052775;28;20033;-80
2021/11/23 00:47:34;;;;;;;4.43;3.28;;;6.00;74.10;;;;;;5051877;28;20032;-79
2021/11/23 00:50:00;;;;;;;5.30;3.15;;;6.00;74.10;;;;;;5052750;28;20032;-80
2021/11/23 00:52:26;;;;;;;5.20;3.10;;;5.90;74.10;;;;;;5052970;28;20072;-79
2021/11/23 00:54:51;;;;;;;5.07;3.33;;;5.90;74.10;;;;;;5069113;28;20112;-79
2021/11/23 00:57:17;;;;;;;4.03;3.10;;;5.90;74.20;;;;;;5035929;28;20112;-81
2021/11/23 00:59:43;;;;;;;4.72;3.17;;;5.90;74.80;;;;;;5052381;28;20033;-80
2021/11/23 01:02:09;;;;;;;4.47;3.03;;;5.90;74.20;;;;;;5052566;28;20037;-81
2021/11/23 01:04:36;;;;;;;4.70;3.50;;;5.90;74.20;;;;;;5052648;28;20067;-80
2021/11/23 01:07:02;;;;;;;4.35;2.95;;;5.90;74.20;;;;;;5052627;28;20032;-79
2021/11/23 01:09:28;;;;;;;4.40;3.05;;;5.90;74.20;;;;;;5052301;28;20033;-79
2021/11/23 01:11:54;;;;;;;5.35;3.28;;;5.90;74.30;;;;;;5052601;28;20033;-79
2021/11/23 01:14:21;;;;;;;4.55;3.30;;;5.90;74.30;;;;;;5053237;28;20037;-79
2021/11/23 01:16:48;;;;;;;4.60;3.13;;;5.90;74.30;;;;;;5052154;28;20041;-80
2021/11/23 01:19:16;;;;;;;4.18;3.05;;;5.90;74.30;;;;;;5052215;28;20025;-80
2021/11/23 01:21:42;;;;;;;5.15;2.90;;;5.90;74.30;;;;;;5068428;28;20069;-79
2021/11/23 01:24:09;;;;;;;4.80;3.38;;;5.90;74.40;;;;;;5052155;28;20033;-79
2021/11/23 01:26:35;;;;;;;3.72;2.88;;;5.90;74.40;;;;;;5052378;28;20029;-79
2021/11/23 01:29:02;;;;;;;5.05;3.30;;;5.90;74.40;;;;;;5051988;28;20099;-79
2021/11/23 01:31:28;;;;;;;3.90;2.95;;;5.90;74.50;;;;;;5035990;28;20067;-80
2021/11/23 01:33:54;;;;;;;4.68;3.10;;;5.90;74.50;;;;;;5053047;28;20029;-80
2021/11/23 01:36:19;;;;;;;5.35;3.30;;;5.90;74.50;;;;;;5052056;28;20455;-79
2021/11/23 01:38:45;;;;;;;4.80;2.90;;;5.90;74.50;;;;;;5052166;28;20029;-79
2021/11/23 01:41:11;;;;;;;6.25;3.65;;;5.90;74.50;;;;;;5052006;28;20436;-79
2021/11/23 01:43:38;;;;;;;4.30;3.05;;;5.90;74.60;;;;;;5052154;28;20067;-79
2021/11/23 01:46:04;;;;;;;3.80;2.83;;;5.90;74.60;;;;;;5052070;28;20485;-79
2021/11/23 01:48:32;;;;;;;4.35;3.08;;;5.90;74.70;;;;;;5052976;28;20044;-81
2021/11/23 01:50:58;;;;;;;4.68;3.33;;;5.90;74.70;;;;;;5052855;28;20029;-79
2021/11/23 01:53:25;;;;;;;4.05;2.80;;;5.90;74.70;;;;;;5052191;28;20029;-80
2021/11/23 01:55:51;;;;;;;4.10;3.10;;;6.00;74.80;;;;;;5052000;28;20029;-80
2021/11/23 01:58:17;;;;;;;4.60;3.33;;;5.90;74.80;;;;;;5053308;28;20025;-80
2021/11/23 02:00:45;;;;;;;5.32;3.20;;;6.00;74.80;;;;;;5072148;28;20033;-79
2021/11/23 02:03:12;;;;;;;5.28;3.20;;;6.00;74.80;;;;;;5056675;28;20025;-79
2021/11/23 02:05:38;;;;;;;5.05;2.97;;;6.00;74.90;;;;;;5038859;28;20182;-79
2021/11/23 02:08:04;;;;;;;4.88;3.15;;;6.00;74.90;;;;;;5055372;28;20462;-79
2021/11/23 02:10:30;;;;;;;5.88;3.45;;;6.00;74.90;;;;;;5055292;28;20036;-78
2021/11/23 02:12:57;;;;;;;4.07;2.58;;;6.00;74.90;;;;;;5055299;28;20032;-79
2021/11/23 02:15:23;;;;;;;4.60;2.95;;;6.00;75.00;;;;;;5055557;28;20051;-79
2021/11/23 02:17:50;;;;;;;4.25;2.95;;;6.00;74.90;;;;;;5055100;28;20521;-79
2021/11/23 02:20:18;;;;;;;4.80;2.90;;;6.00;74.90;;;;;;5055469;28;20025;-79
2021/11/23 02:22:46;;;;;;;4.63;2.92;;;6.00;75.00;;;;;;5055983;28;20094;-79
2021/11/23 02:25:12;;;;;;;4.47;3.03;;;6.00;75.00;;;;;;5056536;28;20527;-79
2021/11/23 02:27:39;;;;;;;5.30;3.20;;;6.10;75.10;;;;;;5055385;28;20055;-79
2021/11/23 02:30:07;;;;;;;4.68;3.03;;;6.10;75.10;;;;;;5055027;28;20147;-79
2021/11/23 02:32:38;;;;;;;4.20;2.83;;;6.10;75.10;;;;;;5054758;28;20033;-79
2021/11/23 02:35:05;;;;;;;4.97;3.72;;;6.10;75.10;;;;;;5054983;28;20033;-80
2021/11/23 02:37:31;;;;;;;4.20;3.10;;;6.10;75.10;;;;;;5071476;28;20045;-79
2021/11/23 02:39:57;;;;;;;4.65;3.00;;;6.10;75.10;;;;;;5055305;28;20557;-79
2021/11/23 02:42:22;;;;;;;3.25;2.67;;;6.10;75.10;;;;;;5054907;28;20040;-79
2021/11/23 02:44:48;;;;;;;5.15;3.28;;;6.10;75.10;;;;;;5056135;28;20033;-79
2021/11/23 02:47:14;;;;;;;6.30;3.22;;;6.10;75.10;;;;;;5054629;28;20021;-79
2021/11/23 02:49:39;;;;;;;3.65;3.00;;;6.10;75.10;;;;;;5038204;28;20438;-79
2021/11/23 02:52:09;;;;;;;4.35;3.20;;;6.20;75.20;;;;;;5054716;28;20055;-80
2021/11/23 02:54:36;;;;;;;4.10;3.03;;;6.10;75.10;;;;;;5071357;28;20033;-80
2021/11/23 02:57:02;;;;;;;4.60;3.30;;;6.20;75.20;;;;;;5055546;28;20021;-78
2021/11/23 02:59:28;;;;;;;4.35;3.20;;;6.20;75.30;;;;;;5054663;28;20037;-83
2021/11/23 03:01:55;;;;;;;4.80;2.88;;;6.20;75.20;;;;;;5037895;28;20489;-79
2021/11/23 03:04:20;;;;;;;4.55;2.90;;;6.20;75.30;;;;;;5054600;28;20560;-80
2021/11/23 03:06:48;;;;;;;5.32;3.22;;;6.20;75.30;;;;;;5055115;28;20041;-79
2021/11/23 03:09:13;;;;;;;4.47;3.15;;;6.20;75.30;;;;;;5036943;28;20164;-79
2021/11/23 03:11:39;;;;;;;4.90;3.42;;;6.20;75.30;;;;;;5054634;28;20534;-80
2021/11/23 03:14:05;;;;;;;4.22;2.78;;;6.20;75.30;;;;;;5054157;28;20040;-79
2021/11/23 03:16:30;;;;;;;4.38;3.10;;;6.20;75.30;;;;;;5055098;28;20075;-80
2021/11/23 03:18:56;;;;;;;4.55;3.20;;;6.30;75.30;;;;;;5054407;28;20120;-79
2021/11/23 03:21:22;;;;;;;6.40;3.40;;;6.30;75.40;;;;;;5054011;28;20433;-79
2021/11/23 03:23:48;;;;;;;4.28;3.25;;;6.30;75.30;;;;;;5054006;28;20039;-79
2021/11/23 03:26:14;;;;;;;4.60;3.17;;;6.30;75.40;;;;;;5054101;28;20116;-79
2021/11/23 03:28:40;;;;;;;4.53;3.13;;;6.30;75.40;;;;;;5054393;28;20116;-81
2021/11/23 03:31:06;;;;;;;4.05;3.00;;;6.30;75.40;;;;;;5036860;28;20028;-80
2021/11/23 03:33:32;;;;;;;4.40;3.40;;;6.30;75.40;;;;;;5070277;28;20507;-82
2021/11/23 03:35:57;;;;;;;3.92;3.00;;;6.40;75.40;;;;;;5070143;28;20085;-79
2021/11/23 03:38:24;;;;;;;3.42;2.80;;;6.40;75.50;;;;;;5054150;28;20120;-80
2021/11/23 03:40:50;;;;;;;4.72;3.05;;;6.40;75.40;;;;;;5054215;28;20083;-79
2021/11/23 03:43:16;;;;;;;4.57;3.33;;;6.40;75.40;;;;;;5053635;28;20037;-79
2021/11/23 03:45:42;;;;;;;4.03;3.03;;;6.40;75.40;;;;;;5070438;28;20044;-79
2021/11/23 03:48:07;;;;;;;4.40;2.85;;;6.40;75.40;;;;;;5054289;28;20025;-81
2021/11/23 03:50:33;;;;;;;3.85;2.80;;;6.40;75.40;;;;;;5053750;28;20044;-80
2021/11/23 03:52:59;;;;;;;3.90;2.80;;;6.40;75.40;;;;;;5053819;28;20354;-79
2021/11/23 03:55:27;;;;;;;3.60;2.55;;;6.40;75.40;;;;;;5054694;28;20044;-79
2021/11/23 03:57:53;;;;;;;4.70;3.08;;;6.50;75.50;;;;;;5054615;28;20032;-79
2021/11/23 04:00:21;;;;;;;4.63;3.25;;;6.40;75.40;;;;;;5053237;28;20089;-79
2021/11/23 04:02:49;;;;;;;3.95;2.90;;;6.50;75.60;;;;;;5053682;28;20028;-80
2021/11/23 04:05:16;;;;;;;4.28;2.67;;;6.50;75.50;;;;;;5054340;28;20112;-79
2021/11/23 04:07:42;;;;;;;3.97;2.70;;;6.50;75.50;;;;;;5053273;28;20373;-79
2021/11/23 04:10:13;;;;;;;3.88;3.03;;;6.50;75.50;;;;;;5069945;28;20104;-81
2021/11/23 04:12:39;;;;;;;4.93;3.05;;;6.50;75.60;;;;;;5053841;28;20036;-80
2021/11/23 04:15:07;;;;;;;4.22;3.00;;;6.50;75.50;;;;;;5070047;28;20033;-79
2021/11/23 04:17:33;;;;;;;3.80;2.90;;;6.50;75.50;;;;;;5053131;28;20033;-80
2021/11/23 04:19:59;;;;;;;3.85;2.95;;;6.50;75.60;;;;;;5052759;28;20098;-79
2021/11/23 04:22:24;;;;;;;3.92;2.83;;;6.60;75.60;;;;;;5053445;28;20025;-80
2021/11/23 04:24:50;;;;;;;4.60;3.00;;;6.60;75.60;;;;;;5036158;28;20131;-79
2021/11/23 04:27:16;;;;;;;3.92;3.03;;;6.60;75.60;;;;;;5052899;28;20039;-80
2021/11/23 04:29:42;;;;;;;3.72;2.70;;;6.60;75.60;;;;;;5052974;28;20025;-80
2021/11/23 04:32:08;;;;;;;3.97;2.80;;;6.60;75.60;;;;;;5054997;28;20037;-79
2021/11/23 04:34:33;;;;;;;3.47;2.58;;;6.60;75.60;;;;;;5069300;28;20021;-80
2021/11/23 04:36:59;;;;;;;4.32;2.80;;;6.60;75.60;;;;;;5052355;28;20048;-79
2021/11/23 04:39:25;;;;;;;4.07;2.78;;;6.60;75.60;;;;;;5053924;28;20033;-80
2021/11/23 04:41:51;;;;;;;4.40;3.00;;;6.60;75.60;;;;;;5053526;28;20390;-79
2021/11/23 04:44:17;;;;;;;3.92;3.00;;;6.70;75.60;;;;;;5052441;28;20366;-80
2021/11/23 04:46:42;;;;;;;3.53;2.45;;;6.60;75.50;;;;;;5053699;28;20037;-79
2021/11/23 04:49:09;;;;;;;4.03;2.90;;;6.70;75.60;;;;;;5053620;28;20029;-80
2021/11/23 04:51:35;;;;;;;4.03;2.88;;;6.70;75.60;;;;;;5053859;28;20056;-81
2021/11/23 04:54:01;;;;;;;3.00;2.50;;;6.70;75.60;;;;;;5036719;28;20060;-79
2021/11/23 04:56:27;;;;;;;3.53;2.50;;;6.70;75.60;;;;;;5052873;28;20458;-82
2021/11/23 04:58:53;;;;;;;3.15;2.33;;;6.70;75.60;;;;;;5052808;28;20040;-80
2021/11/23 05:01:19;;;;;;;3.70;2.55;;;6.70;75.60;;;;;;5053941;28;20096;-79
2021/11/23 05:03:45;;;;;;;3.53;2.45;;;6.80;75.60;;;;;;5053176;28;20076;-78
2021/11/23 05:06:10;;;;;;;2.85;2.30;;;6.80;75.60;;;;;;5052403;28;20519;-80
2021/11/23 05:08:36;;;;;;;2.83;2.38;;;6.80;75.60;;;;;;5053836;28;20025;-77
2021/11/23 05:11:03;;;;;;;3.13;2.45;;;6.80;76.30;;;;;;5053431;28;20088;-79
2021/11/23 05:13:28;;;;;;;3.28;2.35;;;6.80;75.70;;;;;;5052491;28;20371;-78
2021/11/23 05:15:54;;;;;;;3.47;2.40;;;6.80;75.60;;;;;;5052030;28;20104;-78
2021/11/23 05:18:20;;;;;;;3.17;2.40;;;6.80;75.60;;;;;;5052045;28;20120;-78
2021/11/23 05:20:46;;;;;;;2.85;2.40;;;6.80;76.30;;;;;;5052263;28;20464;-78
2021/11/23 05:23:11;;;;;;;3.15;2.53;;;6.80;75.60;;;;;;5052342;28;20037;-78
2021/11/23 05:25:37;;;;;;;3.35;2.50;;;6.80;75.60;;;;;;5035839;28;20029;-78
2021/11/23 05:28:03;;;;;;;3.72;2.40;;;6.90;75.70;;;;;;5052107;28;20056;-78
2021/11/23 05:30:29;;;;;;;3.17;2.35;;;6.90;75.60;;;;;;5035101;28;20032;-77
2021/11/23 05:32:54;;;;;;;2.58;2.28;;;6.90;75.60;;;;;;5053549;28;20070;-80
2021/11/23 05:35:20;;;;;;;3.15;2.40;;;6.90;75.60;;;;;;5055997;28;20025;-77
2021/11/23 05:37:46;;;;;;;4.07;2.50;;;6.90;75.60;;;;;;5072831;28;20040;-78
2021/11/23 05:40:12;;;;;;;2.60;2.20;;;6.90;75.60;;;;;;5056246;28;20033;-77
2021/11/23 05:42:39;;;;;;;3.22;2.30;;;7.00;75.70;;;;;;5055863;28;20037;-77
2021/11/23 05:45:08;;;;;;;3.60;2.25;;;6.90;75.70;;;;;;5055695;28;20040;-79
2021/11/23 05:47:36;;;;;;;3.45;2.53;;;7.00;75.70;;;;;;5056595;28;20037;-77
2021/11/23 05:50:03;;;;;;;3.67;2.30;;;7.00;75.70;;;;;;5055653;28;20071;-80
2021/11/23 05:52:29;;;;;;;3.72;2.30;;;7.00;75.70;;;;;;5054963;28;20473;-82
2021/11/23 05:54:54;;;;;;;4.15;2.50;;;7.00;75.70;;;;;;5056155;28;20099;-78
2021/11/23 05:57:20;;;;;;;3.28;2.20;;;7.00;75.60;;;;;;5055473;28;20047;-81
2021/11/23 05:59:46;;;;;;;3.42;2.33;;;7.00;75.60;;;;;;5056006;28;20059;-79
2021/11/23 06:02:12;;;;;;;3.08;2.38;;;7.00;75.70;;;;;;5072004;28;20033;-80
2021/11/23 06:04:38;;;;;;;2.83;2.20;;;7.10;75.80;;;;;;5055144;28;20040;-82
2021/11/23 06:07:04;;;;;;;2.90;2.22;;;7.10;75.70;;;;;;5055947;28;20028;-82
2021/11/23 06:09:29;;;;;;;3.58;2.25;;;7.10;75.70;;;;;;5056603;28;20021;-83
2021/11/23 06:11:55;;;;;;;2.97;2.50;;;7.10;75.70;;;;;;5055720;28;20390;-77
2021/11/23 06:14:21;;;;;;;2.60;2.25;;;7.10;75.70;;;;;;5056397;28;20037;-77
2021/11/23 06:16:47;;;;;;;3.13;2.30;;;7.10;75.60;;;;;;5071848;28;20037;-77
2021/11/23 06:19:13;;;;;;;2.65;2.13;;;7.10;75.60;;;;;;5055312;28;20033;-78
2021/11/23 06:21:41;;;;;;;3.50;2.45;;;7.10;75.60;;;;;;5038568;28;20029;-77
2021/11/23 06:24:08;;;;;;;2.83;2.25;;;7.20;75.70;;;;;;5055651;28;20397;-79
2021/11/23 06:26:34;;;;;;;2.72;2.10;;;7.20;75.70;;;;;;5071443;28;20037;-79
2021/11/23 06:29:00;;;;;;;2.88;1.98;;;7.20;75.70;;;;;;5054883;28;20029;-79
2021/11/23 06:31:26;;;;;;;2.38;2.00;;;7.20;75.70;;;;;;5055148;28;20376;-78
2021/11/23 06:33:54;;;;;;;3.42;2.25;;;7.20;75.70;;;;;;5055909;28;20032;-81
2021/11/23 06:36:21;;;;;;;2.80;2.20;;;7.20;75.70;;;;;;5055352;28;20045;-81
2021/11/23 06:38:50;;;;;;;3.42;2.45;;;7.30;75.80;;;;;;5054903;28;20504;-79
2021/11/23 06:41:16;;;;;;;2.63;2.00;;;7.30;75.80;;;;;;5055432;28;20021;-77
2021/11/23 06:43:41;;;;;;;2.95;2.33;;;7.30;75.80;;;;;;5037330;28;20363;-78
2021/11/23 06:46:07;;;;;;;3.67;2.13;;;7.30;75.80;;;;;;5054637;28;20330;-78
2021/11/23 06:48:33;;;;;;;3.17;2.20;;;7.30;75.80;;;;;;5054773;28;20087;-78
2021/11/23 06:50:59;;;;;;;2.92;2.15;;;7.30;75.80;;;;;;5037773;28;20095;-78
2021/11/23 06:53:24;;;;;;;3.00;2.22;;;7.30;75.80;;;;;;5054076;28;20032;-79
2021/11/23 06:55:50;;;;;;;3.63;2.33;;;7.40;76.50;;;;;;5054425;28;20033;-78
2021/11/23 06:58:17;;;;;;;2.97;1.90;;;7.40;75.80;;;;;;5054586;28;20037;-78
2021/11/23 07:00:43;;;;;;;3.47;2.22;;;7.40;75.80;;;;;;5054503;28;20098;-78
2021/11/23 07:03:09;;;;;;;2.95;2.10;;;7.40;75.80;;;;;;5055150;28;20036;-78
2021/11/23 07:05:35;;;;;;;2.58;2.17;;;7.40;75.80;;;;;;5054296;28;20092;-78
2021/11/23 07:08:00;;;;;;;3.03;2.08;;;7.40;75.80;;;;;;5054042;28;20029;-78
2021/11/23 07:10:26;;;;;;;3.33;2.10;;;7.40;75.80;;;;;;5054076;28;20025;-77
2021/11/23 07:12:52;;;;;;;3.60;2.40;;;7.40;75.80;;;;;;5055357;28;20489;-77
2021/11/23 07:15:18;;;;;;;2.20;1.98;;;7.40;75.80;;;;;;5053937;28;20032;-77
2021/11/23 07:17:44;;;;;;;2.78;2.28;;;7.40;75.80;;;;;;5053724;28;20048;-78
2021/11/23 07:20:10;;;;;;;2.53;2.08;;;7.50;75.80;;;;;;5054301;28;20033;-78
2021/11/23 07:22:36;;;;;;;2.85;1.90;;;7.50;75.80;;;;;;5053585;28;20117;-80
2021/11/23 07:25:03;;;;;;;3.20;2.17;;;7.50;75.80;;;;;;5070328;28;20103;-78
2021/11/23 07:27:28;;;;;;;3.53;2.40;;;7.50;75.80;;;;;;5054303;28;20044;-78
2021/11/23 07:29:54;;;;;;;3.05;2.25;;;7.50;75.80;;;;;;5037335;28;20036;-78
2021/11/23 07:32:20;;;;;;;2.72;2.40;;;7.50;75.80;;;;;;5053828;28;20428;-78
2021/11/23 07:34:46;;;;;;;2.83;2.10;;;7.50;75.80;;;;;;5053789;28;20492;-77
2021/11/23 07:37:11;;;;;;;3.15;2.13;;;7.50;75.80;;;;;;5053295;28;20049;-77
2021/11/23 07:39:37;;;;;;;3.08;1.90;;;7.50;75.80;;;;;;5053835;28;20033;-78
2021/11/23 07:42:04;;;;;;;3.33;2.20;;;7.50;75.80;;;;;;5055085;28;20033;-78
2021/11/23 07:44:31;;;;;;;3.15;2.10;;;7.50;75.80;;;;;;5053675;28;20025;-77
2021/11/23 07:46:56;;;;;;;3.03;2.10;;;7.50;75.80;;;;;;5053713;28;20358;-79
2021/11/23 07:49:22;;;;;;;2.80;2.03;;;7.50;75.80;;;;;;5070334;28;20154;-78
2021/11/23 07:51:48;;;;;;;2.72;2.10;;;7.60;75.80;;;;;;5053609;28;20078;-77
2021/11/23 07:54:14;;;;;;;2.97;2.08;;;7.60;75.90;;;;;;5036471;28;20122;-78
2021/11/23 07:56:41;;;;;;;3.33;2.03;;;7.50;75.80;;;;;;5053393;28;20125;-77
2021/11/23 07:59:08;;;;;;;3.20;2.20;;;7.60;75.90;;;;;;5037415;28;20029;-78
2021/11/23 08:01:33;;;;;;;3.00;2.20;;;7.60;75.80;;;;;;5069960;28;20036;-77
2021/11/23 08:03:59;;;;;;;2.90;2.10;;;7.60;75.90;;;;;;5069629;28;20025;-77
2021/11/23 08:06:26;;;;;;;2.60;2.20;;;7.60;75.80;;;;;;5053019;28;20064;-80
2021/11/23 08:08:51;;;;;;;2.78;2.08;;;7.60;75.90;;;;;;5069295;28;20031;-78
2021/11/23 08:11:17;;;;;;;3.25;1.90;;;7.60;75.90;;;;;;5053898;28;20440;-78
2021/11/23 08:13:43;;;;;;;2.83;2.10;;;7.60;75.90;;;;;;5053045;28;20056;-78
2021/11/23 08:16:08;;;;;;;2.65;2.30;;;7.60;75.90;;;;;;5054541;28;20116;-78
2021/11/23 08:18:35;;;;;;;2.50;2.15;;;7.60;75.90;;;;;;5069163;28;20037;-78
2021/11/23 08:21:02;;;;;;;2.15;1.95;;;7.60;76.50;;;;;;5054120;28;20025;-77
2021/11/23 08:23:28;;;;;;;2.53;2.10;;;7.70;75.90;;;;;;5069074;28;20420;-78
2021/11/23 08:25:55;;;;;;;2.72;2.13;;;7.70;75.90;;;;;;5035961;28;20029;-78
2021/11/23 08:28:23;;;;;;;2.90;2.00;;;7.70;75.90;;;;;;5052826;28;20497;-77
2021/11/23 08:30:50;;;;;;;4.07;2.17;;;7.70;75.90;;;;;;5053405;28;20025;-80
2021/11/23 08:33:16;;;;;;;2.47;1.85;;;7.80;75.90;;;;;;5036123;28;20037;-77
2021/11/23 08:35:42;;;;;;;2.58;2.22;;;7.70;75.90;;;;;;5052800;28;20053;-78
2021/11/23 08:38:08;;;;;;;3.67;2.38;;;7.70;75.90;;;;;;5068878;28;20025;-78
2021/11/23 08:40:34;;;;;;;2.72;2.10;;;7.80;75.90;;;;;;5052455;28;20405;-78
2021/11/23 08:42:59;;;;;;;3.03;2.17;;;7.80;75.90;;;;;;5053383;28;20033;-79
2021/11/23 08:45:26;;;;;;;3.22;2.05;;;7.80;75.90;;;;;;5052834;28;20397;-78
2021/11/23 08:47:51;;;;;;;2.92;2.03;;;7.80;75.90;;;;;;5052449;28;20039;-78
2021/11/23 08:50:20;;;;;;;2.90;2.10;;;7.80;75.90;;;;;;5052464;28;20128;-78
2021/11/23 08:52:46;;;;;;;2.83;2.15;;;7.90;76.00;;;;;;5053760;28;20118;-78
2021/11/23 08:55:12;;;;;;;3.25;2.35;;;7.90;75.90;;;;;;5052843;28;20025;-78
2021/11/23 08:57:39;;;;;;;2.20;2.00;;;7.90;75.90;;;;;;5052097;28;20028;-77
2021/11/23 09:00:15;;;;;;;2.45;1.95;;;7.90;75.90;;;;;;5053952;28;20029;-78
2021/11/23 09:02:47;;;;;;;2.85;2.20;;;7.90;75.90;;;;;;5037119;28;20107;-78
2021/11/23 09:05:14;;;;;;;2.42;1.80;;;7.90;75.90;;;;;;5069034;28;20029;-78
2021/11/23 09:07:40;;;;;;;2.72;2.08;;;8.00;76.00;;;;;;5053695;28;20057;-78
2021/11/23 09:10:10;;;;;;;2.80;2.10;;;8.00;75.90;;;;;;5072881;28;20040;-79
2021/11/23 09:12:36;;;;;;;2.72;2.05;;;8.00;75.90;;;;;;5056343;28;20060;-78
2021/11/23 09:15:02;;;;;;;2.72;2.17;;;8.00;76.00;;;;;;5057636;28;20098;-78
2021/11/23 09:17:28;;;;;;;3.83;2.50;;;8.00;76.00;;;;;;5056463;28;20102;-78
2021/11/23 09:19:54;;;;;;;3.22;2.20;;;8.00;75.90;;;;;;5057612;28;20031;-80
2021/11/23 09:22:20;;;;;;;2.92;2.10;;;8.10;76.00;;;;;;5056033;28;20033;-78
2021/11/23 09:24:46;;;;;;;2.75;2.22;;;8.10;76.00;;;;;;5056953;28;20372;-77
2021/11/23 09:27:12;;;;;;;2.45;1.90;;;8.10;76.00;;;;;;5056116;28;20029;-79
2021/11/23 09:29:38;;;;;;;3.25;2.33;;;8.20;76.00;;;;;;5055880;28;20032;-78
2021/11/23 09:32:06;;;;;;;3.30;2.15;;;8.20;76.00;;;;;;5055968;28;20146;-78
2021/11/23 09:34:32;;;;;;;3.17;2.20;;;8.20;76.00;;;;;;5056856;28;20033;-78
2021/11/23 09:36:58;;;;;;;2.17;1.90;;;8.20;75.90;;;;;;5055627;28;20055;-79
2021/11/23 09:39:24;;;;;;;2.95;2.40;;;8.20;75.90;;;;;;5057197;28;20063;-78
2021/11/23 09:41:50;;;;;;;3.10;2.30;;;8.30;76.00;;;;;;5056045;28;20090;-78
2021/11/23 09:44:16;;;;;;;3.95;2.22;;;8.30;76.00;;;;;;5055625;28;20040;-79
2021/11/23 09:46:42;;;;;;;4.57;2.50;;;8.30;75.90;;;;;;5072487;28;20029;-78
2021/11/23 09:49:09;;;;;;;4.78;2.42;;;8.40;76.00;;;;;;5056871;28;20033;-80
2021/11/23 09:51:36;;;;;;;4.18;2.80;;;8.40;76.00;;;;;;5056669;28;20025;-77
2021/11/23 09:54:05;;;;;;;2.72;2.35;;;8.40;75.90;;;;;;5057138;28;20545;-78
2021/11/23 09:56:32;;;;;;;3.50;2.58;;;8.40;75.90;;;;;;5071760;28;20516;-77
2021/11/23 09:58:58;;;;;;;4.63;2.78;;;8.50;75.90;;;;;;5038744;28;20040;-78
2021/11/23 10:01:28;;;;;;;4.00;2.80;;;8.50;75.90;;;;;;5055163;28;20029;-77
2021/11/23 10:03:56;;;;;;;3.60;2.72;;;8.50;75.90;;;;;;5056578;28;20036;-77
2021/11/23 10:06:24;;;;;;;3.80;2.53;;;8.50;75.80;;;;;;5056061;28;20484;-77
2021/11/23 10:08:53;;;;;;;4.63;2.67;;;8.50;75.80;;;;;;5055489;28;20374;-78
2021/11/23 10:11:28;;;;;;;3.10;2.28;;;8.60;75.90;;;;;;5055059;28;20385;-78
2021/11/23 10:14:00;;;;;;;3.97;2.50;;;8.60;75.90;;;;;;5055993;28;20083;-78
2021/11/23 10:16:39;;;;;;;4.03;2.70;;;8.70;75.90;;;;;;5055991;28;20106;-78
2021/11/23 10:19:08;;;;;;;3.00;2.40;;;8.70;75.80;;;;;;5056848;28;20098;-78
2021/11/23 10:21:33;;;;;;;4.85;2.67;;;8.70;75.70;;;;;;5056775;28;20028;-78
2021/11/23 10:23:59;;;;;;;3.60;2.67;;;8.70;75.70;;;;;;5055181;28;20035;-80
2021/11/23 10:26:30;;;;;;;3.75;2.67;;;8.80;75.80;;;;;;5054991;28;20075;-79
2021/11/23 10:28:56;;;;;;;4.85;2.78;;;8.80;75.80;;;;;;5056017;28;20036;-77
2021/11/23 10:31:28;;;;;;;4.85;3.08;;;8.80;75.70;;;;;;5054808;28;20025;-78
2021/11/23 10:34:03;;;;;;;5.15;3.00;;;8.90;75.80;;;;;;5055213;28;20055;-78
2021/11/23 10:36:30;;;;;;;;;;;8.90;75.80;;;;;;5056821;28;20049;-79
2021/11/23 10:39:03;;;;;;;4.63;2.40;;;8.90;75.60;;;;;;5054875;28;20361;-79
2021/11/23 10:41:28;;;;;;;3.83;2.67;;;8.90;75.50;;;;;;5056795;28;20036;-78
2021/11/23 10:43:54;;;;;;;4.13;2.67;;;9.00;75.60;;;;;;5054513;28;20029;-78
2021/11/23 10:46:22;;;;;;;3.92;2.85;;;9.00;75.70;;;;;;5054837;28;20174;-79
2021/11/23 10:49:00;;;;;;;4.55;3.10;;;9.00;75.70;;;;;;5054609;28;20186;-78
2021/11/23 10:51:36;;;;;;;5.57;3.20;;;9.00;75.70;;;;;;5054202;28;20029;-78
2021/11/23 10:54:16;;;;;;;4.55;3.15;;;9.10;75.60;;;;;;5054817;28;20025;-77
2021/11/23 10:56:58;;;;;;;5.40;3.40;;;9.10;75.70;;;;;;5055665;28;20147;-78
2021/11/23 10:59:24;;;;;;;4.40;3.00;;;9.20;75.70;;;;;;5055117;28;20044;-78
2021/11/23 11:01:50;;;;;;;5.55;3.08;;;9.20;75.60;;;;;;5054153;28;20382;-79
2021/11/23 11:04:18;;;;;;;4.20;3.15;;;9.20;75.50;;;;;;5054353;28;20040;-78
2021/11/23 11:06:44;;;;;;;4.65;3.08;;;9.30;75.60;;;;;;5054243;28;20086;-78
2021/11/23 11:09:10;;;;;;;5.50;3.33;;;9.30;75.60;;;;;;5053693;28;20033;-78
2021/11/23 11:11:38;;;;;;;6.07;3.47;;;9.30;75.50;;;;;;5053994;28;20021;-79
2021/11/23 11:14:05;;;;;;;5.20;3.35;;;9.40;75.50;;;;;;5054348;28;20120;-80
2021/11/23 11:16:35;;;;;;;5.93;3.45;;;9.40;75.50;;;;;;5054040;28;20025;-78
2021/11/23 11:19:14;;;;;;;5.53;3.40;;;9.40;75.50;;;;;;5054271;28;20029;-79
2021/11/23 11:22:04;;;;;;;5.10;3.28;;;9.50;75.50;;;;;;5055150;28;20029;-79
2021/11/23 11:24:35;;;;;;;4.93;3.42;;;9.50;76.10;;;;;;5055593;28;20032;-79
2021/11/23 11:27:13;;;;;;;5.03;3.58;;;9.50;75.40;;;;;;5054049;28;20044;-80
2021/11/23 11:29:42;;;;;;;5.72;3.55;;;9.60;75.50;;;;;;5038913;28;20473;-79
2021/11/23 11:32:34;;;;;;;4.63;3.15;;;9.60;75.50;;;;;;5054427;28;20028;-78
2021/11/23 11:35:26;;;;;;;4.72;3.30;;;9.60;75.70;;;;;;5054879;28;20029;-79
2021/11/23 11:37:55;;;;;;;4.63;3.25;;;9.70;75.70;;;;;;5055078;28;20087;-79
2021/11/23 11:40:32;;;;;;;5.38;3.80;;;9.70;75.60;;;;;;5054415;28;20025;-78
2021/11/23 11:43:05;;;;;;;4.13;2.90;;;9.80;75.80;;;;;;5070001;28;20083;-80
2021/11/23 11:45:43;;;;;;;5.05;3.65;;;9.80;75.80;;;;;;5053362;28;20047;-78
2021/11/23 11:48:39;;;;;;;3.63;2.90;;;9.80;75.90;;;;;;5053596;28;20025;-78
2021/11/23 11:51:08;;;;;;;4.75;3.05;;;9.90;76.00;;;;;;5054103;28;20370;-77
2021/11/23 11:53:43;;;;;;;4.90;3.40;;;9.90;75.80;;;;;;5053067;28;20115;-78
2021/11/23 11:56:10;;;;;;;4.32;2.97;;;10.00;76.00;;;;;;5055082;28;20495;-80
2021/11/23 11:58:44;;;;;;;4.18;3.03;;;10.00;75.90;;;;;;5053158;28;20027;-78
2021/11/23 12:01:24;;;;;;;4.40;3.22;;;10.00;76.00;;;;;;5054183;28;20496;-78
2021/11/23 12:04:03;;;;;;;5.63;3.15;;;10.10;76.00;;;;;;5054624;28;20119;-78
2021/11/23 12:06:54;;;;;;;5.43;3.15;;;10.10;76.00;;;;;;5054097;28;20032;-78
2021/11/23 12:09:29;;;;;;;4.35;2.90;;;10.20;76.10;;;;;;5054376;28;20087;-78
2021/11/23 12:12:00;;;;;;;4.07;2.90;;;10.20;76.00;;;;;;5053280;28;20082;-78
2021/11/23 12:14:33;;;;;;;4.47;2.80;;;10.20;75.90;;;;;;5053380;28;20515;-80
2021/11/23 12:17:14;;;;;;;4.18;2.60;;;10.30;76.00;;;;;;5053673;28;20025;-78
2021/11/23 12:20:02;;;;;;;4.53;3.10;;;10.30;76.00;;;;;;5054135;28;20036;-78
2021/11/23 12:22:45;;;;;;;3.60;2.58;;;10.40;76.00;;;;;;5054394;28;20112;-79
2021/11/23 12:25:13;;;;;;;4.30;2.92;;;10.40;75.90;;;;;;5052822;28;20527;-78
2021/11/23 12:27:45;;;;;;;4.00;2.90;;;10.50;75.80;;;;;;5069165;28;20033;-80
2021/11/23 12:30:13;;;;;;;3.58;2.72;;;10.50;75.80;;;;;;5053439;28;20079;-78
2021/11/23 12:32:39;;;;;;;3.90;2.90;;;10.50;75.70;;;;;;5052655;28;20029;-78
2021/11/23 12:35:08;;;;;;;5.20;3.10;;;10.50;75.60;;;;;;5052434;28;20086;-78
2021/11/23 12:37:37;;;;;;;4.28;3.10;;;10.50;75.60;;;;;;5052344;28;20052;-77
2021/11/23 12:40:13;;;;;;;4.38;2.97;;;10.60;75.60;;;;;;5052877;28;20035;-78
2021/11/23 12:42:52;;;;;;;3.80;2.90;;;10.60;75.60;;;;;;5051678;28;20021;-79
2021/11/23 12:45:40;;;;;;;3.72;2.78;;;10.70;75.50;;;;;;5069423;28;20037;-78
2021/11/23 12:48:11;;;;;;;4.05;2.80;;;10.60;75.60;;;;;;5052294;28;20029;-78
2021/11/23 12:50:37;;;;;;;3.65;2.78;;;10.70;75.40;;;;;;5068868;28;20025;-79
2021/11/23 12:53:15;;;;;;;3.58;2.78;;;10.70;75.40;;;;;;5052350;28;20040;-78
2021/11/23 12:55:49;;;;;;;3.60;2.58;;;10.70;75.40;;;;;;5053640;28;20184;-78
2021/11/23 12:58:15;;;;;;;3.95;2.70;;;10.80;75.40;;;;;;5052354;28;20036;-78